Latest Coastal Weather Observations for Point Stuart

IDD60701

Issued at 12:31 am CST Sunday 20 August 2017 (issued every 10 minutes, with the page automatically refreshed every 10 minutes)

About coastal observations | Map of coastal stations | Coastal observations for NT | Marine services | Other Formats
Station Details ID: 014254 Name: POINT STUART Lat: -12.24 Lon: 131.88 Height: 1.0 m
Data from the previous 72 hours. | See also: Recent months at Point Stuart
Date/Time
CST
Temp
°C
Wind Pressure Rain since
9am
mm
Weather Cloud Vis
km
Sea
Height
m
Swell
Dir  Spd
kts
Gust
kts
hPa Trend Height
m
Period
s
Dir
20/12:30am 24.1 SSE 3 4 1013.6 - 0.0 - - - - - - -
20/12:00am 24.6 SE 3 5 1013.8 - 0.0 - - - - - - -
 
Date/Time
CST
Temp
°C
Wind Pressure Rain since
9am
mm
Weather Cloud Vis
km
Sea
Height
m
Swell
Dir  Spd
kts
Gust
kts
hPa Trend Height
m
Period
s
Dir
19/11:30pm 24.5 SSW 4 5 1013.6 - 0.0 - - - - - - -
19/11:00pm 23.8 CALM 0 0 1013.3 - 0.0 - - - - - - -
19/10:30pm 24.5 N 2 4 1013.2 - 0.0 - - - - - - -
19/10:00pm 25.4 N 3 4 1013.1 - 0.0 - - - - - - -
19/09:30pm 25.6 N 4 6 1012.8 - 0.0 - - - - - - -
19/09:00pm 25.9 NNW 5 8 1012.6 - 0.0 - - - - - - -
19/08:30pm 26.0 NNW 5 8 1012.4 - 0.0 - - - - - - -
19/08:00pm 26.2 NNW 5 9 1012.1 - 0.0 - - - - - - -
19/07:30pm 26.0 N 4 8 1011.8 - 0.0 - - - - - - -
19/07:00pm 26.4 N 1 4 1011.4 - 0.0 - - - - - - -
19/06:30pm 27.7 NNW 6 8 1010.9 - 0.0 - - - - - - -
19/06:00pm 28.6 NNW 7 12 1010.2 - 0.0 - - - - - - -
19/05:30pm 30.4 NNW 7 11 1009.9 - 0.0 - - - - - - -
19/05:00pm 31.3 NW 9 12 1009.7 - 0.0 - - - - - - -
19/04:30pm 31.4 NNW 8 11 1009.8 - 0.0 - - - - - - -
19/04:00pm 32.2 NNW 8 12 1009.9 - 0.0 - - - - - - -
19/03:30pm 32.1 NNW 7 11 1010.3 - 0.0 - - - - - - -
19/03:00pm 32.9 NNW 7 12 1010.6 - 0.0 - - - - - - -
19/02:30pm 32.2 N 7 11 1011.1 - 0.0 - - - - - - -
19/02:00pm 31.9 N 7 11 1011.6 - 0.0 - - - - - - -
19/01:30pm 33.1 NNE 6 11 1012.3 - 0.0 - - - - - - -
19/01:00pm 32.1 NNE 8 12 1012.9 - 0.0 - - - - - - -
19/12:30pm 32.0 NNE 8 14 1013.3 - 0.0 - - - - - - -
19/12:00pm 32.6 ENE 10 14 1013.8 - 0.0 - - - - - - -
19/11:30am 31.7 E 8 13 1014.3 - 0.0 - - - - - - -
19/11:00am 30.6 E 8 11 1014.9 - 0.0 - - - - - - -
19/10:30am 29.7 ENE 5 8 1015.3 - 0.0 - - - - - - -
19/10:00am 28.6 E 6 10 1015.5 - 0.0 - - - - - - -
19/09:30am 27.7 ENE 6 9 1015.4 - 0.0 - - - - - - -
19/09:00am 27.1 E 6 9 1015.1 - 0.0 - - - - - - -
19/08:30am 25.2 E 4 6 1014.9 - 0.0 - - - - - - -
19/08:00am 22.4 CALM 0 3 1014.6 - 0.0 - - - - - - -
19/07:30am 19.6 CALM 0 0 1014.3 - 0.0 - - - - - - -
19/07:00am 18.5 CALM 0 0 1013.9 - 0.0 - - - - - - -
19/06:30am 19.3 CALM 0 0 1013.7 - 0.0 - - - - - - -
19/06:00am 20.2 S 3 4 1013.4 - 0.0 - - - - - - -
19/05:30am 20.6 S 3 4 1013.2 - 0.0 - - - - - - -
19/05:00am 20.6 S 3 4 1012.9 - 0.0 - - - - - - -
19/04:30am 21.0 S 3 4 1013.0 - 0.0 - - - - - - -
19/04:00am 21.5 S 5 6 1012.9 - 0.0 - - - - - - -
19/03:30am 21.5 S 6 7 1013.0 - 0.0 - - - - - - -
19/03:00am 21.5 SSW 5 7 1013.0 - 0.0 - - - - - - -
19/02:30am 21.9 SSW 6 8 1013.0 - 0.0 - - - - - - -
19/02:00am 22.4 SSW 5 6 1013.2 - 0.0 - - - - - - -
19/01:30am 24.1 ENE 4 7 1013.0 - 0.0 - - - - - - -
19/01:00am 24.8 NE 7 8 1013.0 - 0.0 - - - - - - -
19/12:30am 25.2 ENE 8 10 1013.2 - 0.0 - - - - - - -
19/12:00am 25.3 ENE 8 11 1013.4 - 0.0 - - - - - - -
 
Date/Time
CST
Temp
°C
Wind Pressure Rain since
9am
mm
Weather Cloud Vis
km
Sea
Height
m
Swell
Dir  Spd
kts
Gust
kts
hPa Trend Height
m
Period
s
Dir
18/11:30pm 25.2 NE 7 11 1013.5 - 0.0 - - - - - - -
18/11:00pm 25.3 NE 7 10 1013.5 - 0.0 - - - - - - -
18/10:30pm 25.8 NE 9 12 1013.4 - 0.0 - - - - - - -
18/10:00pm 26.2 NE 9 13 1013.3 - 0.0 - - - - - - -
18/09:30pm 26.3 NE 9 14 1013.1 - 0.0 - - - - - - -
18/09:00pm 26.5 NE 8 11 1012.8 - 0.0 - - - - - - -
18/08:30pm 26.4 NNE 5 8 1012.3 - 0.0 - - - - - - -
18/08:00pm 26.6 N 5 7 1011.8 - 0.0 - - - - - - -
18/07:30pm 26.8 NNE 5 8 1011.4 - 0.0 - - - - - - -
18/07:00pm 27.1 NNE 6 9 1011.1 - 0.0 - - - - - - -
18/06:30pm 27.8 NNE 5 9 1010.8 - 0.0 - - - - - - -
18/06:00pm 28.7 N 7 11 1010.5 - 0.0 - - - - - - -
18/05:30pm 29.5 N 9 13 1010.3 - 0.0 - - - - - - -
18/05:00pm 29.8 N 8 14 1010.1 - 0.0 - - - - - - -
18/04:30pm 30.2 NNE 8 14 1009.9 - 0.0 - - - - - - -
18/04:00pm 30.6 NNE 9 13 1009.9 - 0.0 - - - - - - -
18/03:30pm 31.9 NNE 8 11 1010.1 - 0.0 - - - - - - -
18/03:00pm 32.2 NNE 7 11 1010.4 - 0.0 - - - - - - -
18/02:30pm 31.4 NNE 9 14 1010.8 - 0.0 - - - - - - -
18/02:00pm 31.8 NNE 9 15 1011.2 - 0.0 - - - - - - -
18/01:30pm 31.6 NE 10 17 1011.5 - 0.0 - - - - - - -
18/01:00pm 31.0 NNE 9 15 1012.0 - 0.0 - - - - - - -
18/12:30pm 30.7 NE 8 13 1012.4 - 0.0 - - - - - - -
18/12:00pm 30.9 NE 9 14 1012.9 - 0.0 - - - - - - -
18/11:30am 29.6 ENE 9 13 1013.4 - 0.0 - - - - - - -
18/11:00am 29.2 ENE 9 13 1013.9 - 0.0 - - - - - - -
18/10:30am 28.7 E 11 15 1014.2 - 0.0 - - - - - - -
18/10:00am 28.1 ENE 12 16 1014.2 - 0.0 - - - - - - -
18/09:30am 28.2 ENE 11 15 1014.2 - 0.0 - - - - - - -
18/09:00am 27.5 ENE 10 15 1014.1 - 0.0 - - - - - - -
18/08:30am 26.8 E 11 13 1013.9 - 0.0 - - - - - - -
18/08:00am 26.0 ENE 9 12 1013.7 - 0.0 - - - - - - -
18/07:30am 24.8 ENE 7 10 1013.3 - 0.0 - - - - - - -
18/07:00am 23.7 ENE 6 9 1013.1 - 0.0 - - - - - - -
18/06:30am 20.6 ENE 3 6 1012.7 - 0.0 - - - - - - -
18/06:00am 20.0 CALM 0 0 1012.2 - 0.0 - - - - - - -
18/05:30am 20.8 SE 3 3 1011.8 - 0.0 - - - - - - -
18/05:00am 21.1 SE 4 4 1011.5 - 0.0 - - - - - - -
18/04:30am 21.4 CALM 0 0 1011.3 - 0.0 - - - - - - -
18/04:00am 22.2 CALM 0 0 1011.2 - 0.0 - - - - - - -
18/03:30am 22.5 S 4 4 1011.1 - 0.0 - - - - - - -
18/03:00am 22.8 S 4 5 1011.3 - 0.0 - - - - - - -
18/02:30am 22.9 S 5 6 1011.3 - 0.0 - - - - - - -
18/02:00am 22.9 S 4 5 1011.4 - 0.0 - - - - - - -
18/01:30am 23.2 CALM 0 0 1011.5 - 0.0 - - - - - - -
18/01:00am 23.3 S 4 5 1011.6 - 0.0 - - - - - - -
18/12:30am 24.1 NE 1 4 1011.8 - 0.0 - - - - - - -
18/12:00am 24.6 NE 4 7 1011.7 - 0.0 - - - - - - -
 
Date/Time
CST
Temp
°C
Wind Pressure Rain since
9am
mm
Weather Cloud Vis
km
Sea
Height
m
Swell
Dir  Spd
kts
Gust
kts
hPa Trend Height
m
Period
s
Dir
17/11:30pm 25.0 NE 5 7 1011.6 - 0.0 - - - - - - -
17/11:00pm 25.4 NE 6 9 1011.6 - 0.0 - - - - - - -
17/10:30pm 25.5 NE 8 11 1011.6 - 0.0 - - - - - - -
17/10:00pm 25.9 NNE 6 9 1011.4 - 0.0 - - - - - - -
17/09:30pm 26.0 NNE 7 11 1011.1 - 0.0 - - - - - - -
17/09:00pm 26.2 NNE 8 13 1010.9 - 0.0 - - - - - - -
17/08:30pm 26.5 NNE 9 13 1010.6 - 0.0 - - - - - - -
17/08:00pm 26.7 NNE 8 13 1010.2 - 0.0 - - - - - - -
17/07:30pm 27.0 NNE 7 11 1009.8 - 0.0 - - - - - - -
17/07:00pm 27.3 NNE 6 11 1009.6 - 0.0 - - - - - - -
17/06:30pm 27.8 N 4 7 1009.5 - 0.0 - - - - - - -
17/06:00pm 28.7 NNW 5 8 1009.0 - 0.0 - - - - - - -
17/05:30pm 29.8 NNW 6 9 1008.8 - 0.0 - - - - - - -
17/05:00pm 30.5 NNW 7 11 1008.7 - 0.0 - - - - - - -
17/04:30pm 30.6 NNW 8 11 1008.7 - 0.0 - - - - - - -
17/04:00pm 30.5 NNW 7 11 1008.8 - 0.0 - - - - - - -
17/03:30pm 31.6 N 7 11 1008.9 - 0.0 - - - - - - -
17/03:00pm 30.7 N 8 13 1009.2 - 0.0 - - - - - - -
17/02:30pm 31.5 N 8 13 1009.6 - 0.0 - - - - - - -
17/02:00pm 30.6 N 8 13 1010.1 - 0.0 - - - - - - -
17/01:30pm 31.0 N 8 13 1010.7 - 0.0 - - - - - - -
17/01:00pm 30.3 N 9 13 1011.1 - 0.0 - - - - - - -
17/12:30pm 30.7 N 9 13 1011.7 - 0.0 - - - - - - -
17/12:00pm 31.5 NNE 7 11 1012.1 - 0.0 - - - - - - -
17/11:30am 31.5 NE 7 11 1012.6 - 0.0 - - - - - - -
17/11:00am 30.4 NE 7 12 1012.9 - 0.0 - - - - - - -
17/10:30am 29.2 NE 4 8 1013.0 - 0.0 - - - - - - -
17/10:00am 28.6 ENE 4 6 1013.2 - 0.0 - - - - - - -
17/09:30am 26.8 ESE 3 5 1013.0 - 0.0 - - - - - - -
17/09:00am 26.0 ESE 4 5 1012.7 - 0.0 - - - - - - -
17/08:30am 26.4 SSE 4 5 1012.4 - 0.0 - - - - - - -
17/08:00am 24.4 SE 3 4 1012.2 - 0.0 - - - - - - -
17/07:30am 22.3 ESE 3 4 1011.8 - 0.0 - - - - - - -
17/07:00am 21.2 E 4 4 1011.5 - 0.0 - - - - - - -
17/06:30am 21.6 SE 3 4 1010.9 - 0.0 - - - - - - -
17/06:00am 21.5 CALM 0 0 1010.7 - 0.0 - - - - - - -
17/05:30am 22.4 CALM 0 0 1010.4 - 0.0 - - - - - - -
17/05:00am 22.5 CALM 0 0 1010.3 - 0.0 - - - - - - -
17/04:30am 22.8 S 1 4 1010.2 - 0.0 - - - - - - -
17/04:00am 23.1 SSW 4 5 1010.1 - 0.0 - - - - - - -
17/03:30am 23.7 W 4 5 1010.2 - 0.0 - - - - - - -
17/03:00am 24.6 W 5 6 1010.2 - 0.0 - - - - - - -
17/02:30am 25.1 WNW 7 8 1010.4 - 0.0 - - - - - - -
17/02:00am 25.2 NW 6 7 1010.6 - 0.0 - - - - - - -
17/01:30am 25.3 WNW 7 9 1010.6 - 0.0 - - - - - - -
17/01:00am 24.6 NW 6 7 1010.8 - 0.0 - - - - - - -

Other Formats:

Comma delimited format used in spreadsheet applications
http://www.bom.gov.au/fwo/IDD60701/IDD60701.94127.axf

JavaScript Object Notation format (JSON) in row-major order
http://www.bom.gov.au/fwo/IDD60701/IDD60701.94127.json